sensor_id;sensor_type;location;lat;lon;timestamp;pressure;altitude;pressure_sealevel;temperature;humidity
49297;BME280;35163;48.878;18.040;2023-01-30T00:00:53;98856.44;;;-3.29;72.59
49297;BME280;35163;48.878;18.040;2023-01-30T00:03:22;98837.22;;;-3.24;72.26
49297;BME280;35163;48.878;18.040;2023-01-30T00:05:49;98836.25;;;-3.27;71.53
49297;BME280;35163;48.878;18.040;2023-01-30T00:08:20;98839.66;;;-3.27;71.66
49297;BME280;35163;48.878;18.040;2023-01-30T00:10:48;98827.97;;;-3.23;71.40
49297;BME280;35163;48.878;18.040;2023-01-30T00:13:15;98824.66;;;-3.21;71.26
49297;BME280;35163;48.878;18.040;2023-01-30T00:15:42;98825.53;;;-3.20;71.26
49297;BME280;35163;48.878;18.040;2023-01-30T00:18:09;98822.16;;;-3.19;70.76
49297;BME280;35163;48.878;18.040;2023-01-30T00:20:36;98816.16;;;-3.23;71.02
49297;BME280;35163;48.878;18.040;2023-01-30T00:23:02;98812.97;;;-3.17;70.99
49297;BME280;35163;48.878;18.040;2023-01-30T00:25:29;98808.00;;;-3.42;71.79
49297;BME280;35163;48.878;18.040;2023-01-30T00:28:00;98807.72;;;-3.51;72.21
49297;BME280;35163;48.878;18.040;2023-01-30T00:30:27;98812.16;;;-3.44;71.68
49297;BME280;35163;48.878;18.040;2023-01-30T00:32:55;98811.44;;;-3.39;72.11
49297;BME280;35163;48.878;18.040;2023-01-30T00:35:22;98805.00;;;-3.57;72.45
49297;BME280;35163;48.878;18.040;2023-01-30T00:37:55;98799.19;;;-3.55;72.43
49297;BME280;35163;48.878;18.040;2023-01-30T00:40:23;98798.25;;;-3.57;73.31
49297;BME280;35163;48.878;18.040;2023-01-30T00:42:50;98796.66;;;-3.55;73.14
49297;BME280;35163;48.878;18.040;2023-01-30T00:45:38;98787.63;;;-3.46;72.03
49297;BME280;35163;48.878;18.040;2023-01-30T00:48:25;98789.75;;;-3.59;72.19
49297;BME280;35163;48.878;18.040;2023-01-30T00:50:53;98785.25;;;-3.69;72.19
49297;BME280;35163;48.878;18.040;2023-01-30T00:53:20;98786.91;;;-3.70;72.16
49297;BME280;35163;48.878;18.040;2023-01-30T00:55:49;98777.69;;;-3.69;72.29
49297;BME280;35163;48.878;18.040;2023-01-30T00:58:16;98762.66;;;-3.64;71.75
49297;BME280;35163;48.878;18.040;2023-01-30T01:00:43;98765.81;;;-3.70;72.09
49297;BME280;35163;48.878;18.040;2023-01-30T01:03:10;98766.78;;;-3.67;72.03
49297;BME280;35163;48.878;18.040;2023-01-30T01:05:36;98765.91;;;-3.67;72.28
49297;BME280;35163;48.878;18.040;2023-01-30T01:08:03;98755.84;;;-3.66;72.16
49297;BME280;35163;48.878;18.040;2023-01-30T01:10:30;98759.28;;;-3.63;71.67
49297;BME280;35163;48.878;18.040;2023-01-30T01:12:58;98755.97;;;-3.62;71.87
49297;BME280;35163;48.878;18.040;2023-01-30T01:15:25;98767.78;;;-3.61;71.68
49297;BME280;35163;48.878;18.040;2023-01-30T01:17:52;98754.44;;;-3.57;72.14
49297;BME280;35163;48.878;18.040;2023-01-30T01:20:20;98751.91;;;-3.57;71.84
49297;BME280;35163;48.878;18.040;2023-01-30T01:22:47;98742.59;;;-3.58;71.82
49297;BME280;35163;48.878;18.040;2023-01-30T01:25:15;98737.75;;;-3.52;71.92
49297;BME280;35163;48.878;18.040;2023-01-30T01:27:46;98714.00;;;-3.57;71.93
49297;BME280;35163;48.878;18.040;2023-01-30T01:30:13;98718.22;;;-3.56;71.96
49297;BME280;35163;48.878;18.040;2023-01-30T01:32:40;98717.22;;;-3.61;71.06
49297;BME280;35163;48.878;18.040;2023-01-30T01:35:07;98708.81;;;-3.60;71.49
49297;BME280;35163;48.878;18.040;2023-01-30T01:37:33;98717.28;;;-3.60;71.09
49297;BME280;35163;48.878;18.040;2023-01-30T01:40:00;98713.88;;;-3.60;71.52
49297;BME280;35163;48.878;18.040;2023-01-30T01:42:45;98716.31;;;-3.63;71.87
49297;BME280;35163;48.878;18.040;2023-01-30T01:45:16;98716.31;;;-3.63;71.52
49297;BME280;35163;48.878;18.040;2023-01-30T01:48:08;98701.94;;;-3.66;71.18
49297;BME280;35163;48.878;18.040;2023-01-30T01:50:47;98706.13;;;-3.67;71.42
49297;BME280;35163;48.878;18.040;2023-01-30T01:53:16;98696.81;;;-3.68;71.56
49297;BME280;35163;48.878;18.040;2023-01-30T01:55:47;98691.78;;;-3.68;71.56
49297;BME280;35163;48.878;18.040;2023-01-30T01:58:23;98688.41;;;-3.67;71.51
49297;BME280;35163;48.878;18.040;2023-01-30T02:00:52;98686.72;;;-3.68;71.16
49297;BME280;35163;48.878;18.040;2023-01-30T02:03:25;98681.53;;;-3.71;71.61
49297;BME280;35163;48.878;18.040;2023-01-30T02:05:56;98676.41;;;-3.74;71.50
49297;BME280;35163;48.878;18.040;2023-01-30T02:11:04;98667.16;;;-3.73;71.92
49297;BME280;35163;48.878;18.040;2023-01-30T02:13:32;98668.81;;;-3.74;71.95
49297;BME280;35163;48.878;18.040;2023-01-30T02:16:00;98667.16;;;-3.73;71.74
49297;BME280;35163;48.878;18.040;2023-01-30T02:18:30;98674.69;;;-3.75;71.61
49297;BME280;35163;48.878;18.040;2023-01-30T02:24:17;98666.03;;;-3.83;71.73
49297;BME280;35163;48.878;18.040;2023-01-30T02:40:27;98639.84;;;-3.85;71.56
49297;BME280;35163;48.878;18.040;2023-01-30T02:45:53;98622.91;;;-3.88;72.33
49297;BME280;35163;48.878;18.040;2023-01-30T02:48:26;98632.25;;;-3.85;72.24
49297;BME280;35163;48.878;18.040;2023-01-30T02:51:03;98629.66;;;-3.88;72.62
49297;BME280;35163;48.878;18.040;2023-01-30T02:53:32;98632.19;;;-3.88;72.68
49297;BME280;35163;48.878;18.040;2023-01-30T02:55:59;98634.69;;;-3.88;72.68
49297;BME280;35163;48.878;18.040;2023-01-30T02:58:31;98627.97;;;-3.88;72.40
49297;BME280;35163;48.878;18.040;2023-01-30T03:09:19;98610.13;;;-3.93;72.35
49297;BME280;35163;48.878;18.040;2023-01-30T03:14:31;98609.34;;;-3.92;72.03
49297;BME280;35163;48.878;18.040;2023-01-30T03:17:01;98603.44;;;-3.92;72.73
49297;BME280;35163;48.878;18.040;2023-01-30T03:19:29;98606.75;;;-3.93;72.97
49297;BME280;35163;48.878;18.040;2023-01-30T03:21:56;98597.53;;;-3.91;72.87
49297;BME280;35163;48.878;18.040;2023-01-30T03:24:23;98610.13;;;-3.93;72.97
49297;BME280;35163;48.878;18.040;2023-01-30T03:27:06;98605.16;;;-3.90;72.79
49297;BME280;35163;48.878;18.040;2023-01-30T03:29:34;98606.03;;;-3.89;73.06
49297;BME280;35163;48.878;18.040;2023-01-30T03:32:00;98598.31;;;-3.94;72.73
49297;BME280;35163;48.878;18.040;2023-01-30T03:34:27;98594.91;;;-3.96;72.68
49297;BME280;35163;48.878;18.040;2023-01-30T03:36:54;98598.25;;;-3.97;72.93
49297;BME280;35163;48.878;18.040;2023-01-30T03:39:22;98595.56;;;-4.02;73.67
49297;BME280;35163;48.878;18.040;2023-01-30T03:41:53;98586.22;;;-4.04;72.94
49297;BME280;35163;48.878;18.040;2023-01-30T03:44:20;98582.88;;;-4.03;73.27
49297;BME280;35163;48.878;18.040;2023-01-30T03:46:47;98585.44;;;-4.02;73.05
49297;BME280;35163;48.878;18.040;2023-01-30T03:49:14;98580.28;;;-4.06;72.81
49297;BME280;35163;48.878;18.040;2023-01-30T03:51:40;98583.63;;;-4.07;73.26
49297;BME280;35163;48.878;18.040;2023-01-30T03:54:07;98573.47;;;-4.09;73.10
49297;BME280;35163;48.878;18.040;2023-01-30T03:56:33;98565.84;;;-4.10;73.75
49297;BME280;35163;48.878;18.040;2023-01-30T03:59:00;98563.41;;;-4.07;73.03
49297;BME280;35163;48.878;18.040;2023-01-30T04:01:26;98560.94;;;-4.06;73.46
49297;BME280;35163;48.878;18.040;2023-01-30T04:03:53;98565.13;;;-4.06;73.61
49297;BME280;35163;48.878;18.040;2023-01-30T04:06:20;98554.88;;;-4.11;73.90
49297;BME280;35163;48.878;18.040;2023-01-30T04:08:46;98553.22;;;-4.10;73.57
49297;BME280;35163;48.878;18.040;2023-01-30T04:11:13;98546.72;;;-4.02;74.00
49297;BME280;35163;48.878;18.040;2023-01-30T04:13:39;98540.13;;;-3.97;73.72
49297;BME280;35163;48.878;18.040;2023-01-30T04:16:25;98541.03;;;-3.93;73.67
49297;BME280;35163;48.878;18.040;2023-01-30T04:18:52;98538.47;;;-3.95;72.75
49297;BME280;35163;48.878;18.040;2023-01-30T04:21:19;98541.00;;;-3.95;73.10
49297;BME280;35163;48.878;18.040;2023-01-30T04:23:46;98535.19;;;-3.92;73.59
49297;BME280;35163;48.878;18.040;2023-01-30T04:26:13;98533.47;;;-3.93;73.01
49297;BME280;35163;48.878;18.040;2023-01-30T04:28:40;98532.59;;;-3.95;73.60
49297;BME280;35163;48.878;18.040;2023-01-30T04:31:07;98531.69;;;-3.97;72.68
49297;BME280;35163;48.878;18.040;2023-01-30T04:33:34;98532.63;;;-3.94;73.03
49297;BME280;35163;48.878;18.040;2023-01-30T04:36:02;98519.97;;;-3.95;72.96
49297;BME280;35163;48.878;18.040;2023-01-30T04:38:30;98514.00;;;-3.97;73.49
49297;BME280;35163;48.878;18.040;2023-01-30T04:40:57;98516.56;;;-3.96;73.32
49297;BME280;35163;48.878;18.040;2023-01-30T04:43:26;98515.78;;;-3.93;73.00
49297;BME280;35163;48.878;18.040;2023-01-30T04:45:55;98520.03;;;-3.92;72.91
49297;BME280;35163;48.878;18.040;2023-01-30T04:48:23;98517.47;;;-3.94;73.21
49297;BME280;35163;48.878;18.040;2023-01-30T04:50:51;98514.19;;;-3.90;73.76
49297;BME280;35163;48.878;18.040;2023-01-30T04:53:19;98506.63;;;-3.90;73.13
49297;BME280;35163;48.878;18.040;2023-01-30T04:55:46;98505.00;;;-3.87;73.22
49297;BME280;35163;48.878;18.040;2023-01-30T04:58:14;98506.78;;;-3.85;73.01
49297;BME280;35163;48.878;18.040;2023-01-30T05:00:40;98495.81;;;-3.85;73.64
49297;BME280;35163;48.878;18.040;2023-01-30T05:03:07;98487.50;;;-3.81;72.65
49297;BME280;35163;48.878;18.040;2023-01-30T05:05:34;98493.34;;;-3.82;72.77
49297;BME280;35163;48.878;18.040;2023-01-30T05:08:00;98485.06;;;-3.78;73.05
49297;BME280;35163;48.878;18.040;2023-01-30T05:10:27;98489.28;;;-3.77;73.12
49297;BME280;35163;48.878;18.040;2023-01-30T05:12:53;98482.59;;;-3.75;73.16
49297;BME280;35163;48.878;18.040;2023-01-30T05:15:20;98480.88;;;-3.76;73.16
49297;BME280;35163;48.878;18.040;2023-01-30T05:17:47;98475.81;;;-3.76;72.90
49297;BME280;35163;48.878;18.040;2023-01-30T05:20:13;98484.31;;;-3.74;72.62
49297;BME280;35163;48.878;18.040;2023-01-30T05:22:40;98485.31;;;-3.67;73.11
49297;BME280;35163;48.878;18.040;2023-01-30T05:25:09;98475.47;;;-3.58;72.77
49297;BME280;35163;48.878;18.040;2023-01-30T05:27:35;98470.44;;;-3.56;72.56
49297;BME280;35163;48.878;18.040;2023-01-30T05:30:03;98462.88;;;-3.56;72.24
49297;BME280;35163;48.878;18.040;2023-01-30T05:32:37;98450.13;;;-3.61;72.72
49297;BME280;35163;48.878;18.040;2023-01-30T05:35:04;98444.34;;;-3.55;73.04
49297;BME280;35163;48.878;18.040;2023-01-30T05:37:31;98429.28;;;-3.52;72.88
49297;BME280;35163;48.878;18.040;2023-01-30T05:39:57;98429.41;;;-3.46;72.78
49297;BME280;35163;48.878;18.040;2023-01-30T05:42:24;98430.41;;;-3.40;72.85
49297;BME280;35163;48.878;18.040;2023-01-30T05:44:50;98424.38;;;-3.46;72.48
49297;BME280;35163;48.878;18.040;2023-01-30T05:47:17;98421.00;;;-3.45;72.46
49297;BME280;35163;48.878;18.040;2023-01-30T05:49:44;98417.81;;;-3.37;72.24
49297;BME280;35163;48.878;18.040;2023-01-30T05:52:10;98424.50;;;-3.39;71.82
49297;BME280;35163;48.878;18.040;2023-01-30T05:54:37;98419.81;;;-3.24;71.70
49297;BME280;35163;48.878;18.040;2023-01-30T05:57:03;98433.38;;;-3.22;71.78
49297;BME280;35163;48.878;18.040;2023-01-30T05:59:30;98435.84;;;-3.25;70.96
49297;BME280;35163;48.878;18.040;2023-01-30T06:01:56;98443.41;;;-3.25;71.26
49297;BME280;35163;48.878;18.040;2023-01-30T06:04:23;98432.25;;;-3.33;71.89
49297;BME280;35163;48.878;18.040;2023-01-30T06:06:50;98419.63;;;-3.33;71.41
49297;BME280;35163;48.878;18.040;2023-01-30T06:09:16;98430.56;;;-3.33;71.88
49297;BME280;35163;48.878;18.040;2023-01-30T06:11:43;98416.19;;;-3.35;71.47
49297;BME280;35163;48.878;18.040;2023-01-30T06:14:09;98415.34;;;-3.34;72.37
49297;BME280;35163;48.878;18.040;2023-01-30T06:16:36;98427.28;;;-3.30;71.89
49297;BME280;35163;48.878;18.040;2023-01-30T06:19:03;98426.25;;;-3.38;71.75
49297;BME280;35163;48.878;18.040;2023-01-30T06:21:30;98433.00;;;-3.37;72.02
49297;BME280;35163;48.878;18.040;2023-01-30T06:23:56;98435.59;;;-3.34;72.63
49297;BME280;35163;48.878;18.040;2023-01-30T06:26:23;98439.75;;;-3.36;72.48
49297;BME280;35163;48.878;18.040;2023-01-30T06:28:49;98433.97;;;-3.32;72.94
49297;BME280;35163;48.878;18.040;2023-01-30T06:31:16;98430.53;;;-3.34;72.53
49297;BME280;35163;48.878;18.040;2023-01-30T06:33:46;98418.25;;;-3.19;72.24
49297;BME280;35163;48.878;18.040;2023-01-30T06:36:19;98422.38;;;-3.22;72.02
49297;BME280;35163;48.878;18.040;2023-01-30T06:38:46;98414.22;;;-3.10;71.60
49297;BME280;35163;48.878;18.040;2023-01-30T06:41:14;98393.91;;;-3.15;71.73
49297;BME280;35163;48.878;18.040;2023-01-30T06:43:41;98369.75;;;-3.00;71.08
49297;BME280;35163;48.878;18.040;2023-01-30T06:46:08;98336.75;;;-3.05;71.18
49297;BME280;35163;48.878;18.040;2023-01-30T06:48:42;98337.72;;;-3.00;71.58
49297;BME280;35163;48.878;18.040;2023-01-30T06:51:08;98340.94;;;-3.07;71.65
49297;BME280;35163;48.878;18.040;2023-01-30T06:53:35;98325.00;;;-3.03;71.56
49297;BME280;35163;48.878;18.040;2023-01-30T06:56:05;98369.47;;;-3.14;72.54
49297;BME280;35163;48.878;18.040;2023-01-30T06:58:32;98351.81;;;-3.11;72.85
49297;BME280;35163;48.878;18.040;2023-01-30T07:00:58;98342.66;;;-3.06;72.73
49297;BME280;35163;48.878;18.040;2023-01-30T07:03:25;98358.63;;;-3.07;72.90
49297;BME280;35163;48.878;18.040;2023-01-30T07:05:51;98358.63;;;-3.07;72.55
49297;BME280;35163;48.878;18.040;2023-01-30T07:08:19;98369.47;;;-3.14;73.61
49297;BME280;35163;48.878;18.040;2023-01-30T07:10:49;98394.66;;;-3.18;73.31
49297;BME280;35163;48.878;18.040;2023-01-30T07:13:16;98389.56;;;-3.19;73.58
49297;BME280;35163;48.878;18.040;2023-01-30T07:15:43;98368.38;;;-3.24;73.68
49297;BME280;35163;48.878;18.040;2023-01-30T07:18:10;98367.66;;;-3.19;74.53
49297;BME280;35163;48.878;18.040;2023-01-30T07:20:36;98360.22;;;-3.12;74.74
49297;BME280;35163;48.878;18.040;2023-01-30T07:23:03;98351.81;;;-3.11;74.38
49297;BME280;35163;48.878;18.040;2023-01-30T07:25:29;98361.16;;;-3.07;74.79
49297;BME280;35163;48.878;18.040;2023-01-30T07:27:58;98368.00;;;-3.05;74.46
49297;BME280;35163;48.878;18.040;2023-01-30T07:30:27;98374.78;;;-3.02;74.82
49297;BME280;35163;48.878;18.040;2023-01-30T07:32:55;98379.78;;;-3.05;74.31
49297;BME280;35163;48.878;18.040;2023-01-30T07:35:29;98384.16;;;-2.98;74.62
49297;BME280;35163;48.878;18.040;2023-01-30T07:37:56;98390.19;;;-2.93;74.63
49297;BME280;35163;48.878;18.040;2023-01-30T07:40:24;98394.31;;;-2.96;74.89
49297;BME280;35163;48.878;18.040;2023-01-30T07:43:04;98388.50;;;-2.92;74.50
49297;BME280;35163;48.878;18.040;2023-01-30T07:45:42;98366.72;;;-2.85;74.42
49297;BME280;35163;48.878;18.040;2023-01-30T07:48:10;98360.09;;;-2.80;75.31
49297;BME280;35163;48.878;18.040;2023-01-30T07:50:37;98358.56;;;-2.72;75.09
49297;BME280;35163;48.878;18.040;2023-01-30T07:53:06;98362.06;;;-2.66;75.11
49297;BME280;35163;48.878;18.040;2023-01-30T07:55:33;98359.59;;;-2.63;74.72
49297;BME280;35163;48.878;18.040;2023-01-30T07:58:00;98356.25;;;-2.61;74.63
49297;BME280;35163;48.878;18.040;2023-01-30T08:00:27;98360.56;;;-2.57;75.24
49297;BME280;35163;48.878;18.040;2023-01-30T08:02:53;98351.22;;;-2.59;74.94
49297;BME280;35163;48.878;18.040;2023-01-30T08:05:20;98357.22;;;-2.54;74.98
49297;BME280;35163;48.878;18.040;2023-01-30T08:07:46;98332.03;;;-2.48;74.66
49297;BME280;35163;48.878;18.040;2023-01-30T08:10:13;98335.50;;;-2.44;74.78
49297;BME280;35163;48.878;18.040;2023-01-30T08:12:40;98321.22;;;-2.40;74.27
49297;BME280;35163;48.878;18.040;2023-01-30T08:15:08;98311.09;;;-2.39;74.65
49297;BME280;35163;48.878;18.040;2023-01-30T08:17:35;98306.94;;;-2.35;74.33
49297;BME280;35163;48.878;18.040;2023-01-30T08:20:06;98306.94;;;-2.35;73.68
49297;BME280;35163;48.878;18.040;2023-01-30T08:22:33;98278.22;;;-2.37;73.79
49297;BME280;35163;48.878;18.040;2023-01-30T08:24:59;98275.78;;;-2.29;73.94
49297;BME280;35163;48.878;18.040;2023-01-30T08:27:26;98285.16;;;-2.27;74.01
49297;BME280;35163;48.878;18.040;2023-01-30T08:29:52;98285.19;;;-2.25;74.12
49297;BME280;35163;48.878;18.040;2023-01-30T08:32:19;98288.44;;;-2.31;74.37
49297;BME280;35163;48.878;18.040;2023-01-30T08:34:45;98283.47;;;-2.25;75.22
49297;BME280;35163;48.878;18.040;2023-01-30T08:37:12;98294.69;;;-2.12;74.44
49297;BME280;35163;48.878;18.040;2023-01-30T08:39:39;98285.56;;;-2.02;74.34
49297;BME280;35163;48.878;18.040;2023-01-30T08:42:05;98282.19;;;-2.01;74.72
49297;BME280;35163;48.878;18.040;2023-01-30T08:44:32;98284.78;;;-1.99;74.83
49297;BME280;35163;48.878;18.040;2023-01-30T08:46:58;98281.41;;;-1.98;74.73
49297;BME280;35163;48.878;18.040;2023-01-30T08:49:26;98276.34;;;-1.98;74.29
49297;BME280;35163;48.878;18.040;2023-01-30T08:51:53;98262.03;;;-1.94;74.30
49297;BME280;35163;48.878;18.040;2023-01-30T08:54:22;98257.75;;;-1.97;74.81
49297;BME280;35163;48.878;18.040;2023-01-30T08:56:49;98268.81;;;-1.92;75.25
49297;BME280;35163;48.878;18.040;2023-01-30T08:59:15;98260.53;;;-1.81;75.29
49297;BME280;35163;48.878;18.040;2023-01-30T09:01:42;98258.97;;;-1.75;74.43
49297;BME280;35163;48.878;18.040;2023-01-30T09:04:08;98259.94;;;-1.66;74.77
49297;BME280;35163;48.878;18.040;2023-01-30T09:06:35;98255.69;;;-1.67;74.16
49297;BME280;35163;48.878;18.040;2023-01-30T09:09:02;98253.31;;;-1.58;74.28
49297;BME280;35163;48.878;18.040;2023-01-30T09:11:28;98248.31;;;-1.53;75.34
49297;BME280;35163;48.878;18.040;2023-01-30T09:13:55;98239.97;;;-1.44;74.66
49297;BME280;35163;48.878;18.040;2023-01-30T09:16:22;98235.72;;;-1.44;74.72
49297;BME280;35163;48.878;18.040;2023-01-30T09:18:48;98234.09;;;-1.40;75.04
49297;BME280;35163;48.878;18.040;2023-01-30T09:21:15;98234.16;;;-1.36;74.60
49297;BME280;35163;48.878;18.040;2023-01-30T09:23:42;98232.56;;;-1.29;74.84
49297;BME280;35163;48.878;18.040;2023-01-30T09:26:11;98229.94;;;-1.35;74.87
49297;BME280;35163;48.878;18.040;2023-01-30T09:28:41;98235.00;;;-1.37;74.74
49297;BME280;35163;48.878;18.040;2023-01-30T09:31:07;98229.97;;;-1.32;75.13
49297;BME280;35163;48.878;18.040;2023-01-30T09:33:37;98219.00;;;-1.31;75.03
49297;BME280;35163;48.878;18.040;2023-01-30T09:36:03;98214.84;;;-1.26;75.19
49297;BME280;35163;48.878;18.040;2023-01-30T09:38:31;98203.84;;;-1.25;75.89
49297;BME280;35163;48.878;18.040;2023-01-30T09:43:46;98205.69;;;-1.14;75.49
49297;BME280;35163;48.878;18.040;2023-01-30T09:55:30;98193.13;;;-1.03;76.14
49297;BME280;35163;48.878;18.040;2023-01-30T09:57:59;98172.81;;;-1.03;76.20
49297;BME280;35163;48.878;18.040;2023-01-30T10:00:33;98166.94;;;-0.98;75.96
49297;BME280;35163;48.878;18.040;2023-01-30T10:05:49;98158.69;;;-0.81;76.48
49297;BME280;35163;48.878;18.040;2023-01-30T10:11:04;98142.00;;;-0.52;74.82
49297;BME280;35163;48.878;18.040;2023-01-30T10:19:25;98149.53;;;-0.62;75.51
49297;BME280;35163;48.878;18.040;2023-01-30T10:22:29;98143.63;;;-0.59;75.73
49297;BME280;35163;48.878;18.040;2023-01-30T10:27:32;98142.06;;;-0.41;74.57
49297;BME280;35163;48.878;18.040;2023-01-30T10:30:06;98135.31;;;-0.42;75.29
49297;BME280;35163;48.878;18.040;2023-01-30T10:32:52;98129.44;;;-0.38;75.38
49297;BME280;35163;48.878;18.040;2023-01-30T10:35:24;98120.97;;;-0.35;75.05
49297;BME280;35163;48.878;18.040;2023-01-30T10:40:48;98120.19;;;-0.28;75.56
49297;BME280;35163;48.878;18.040;2023-01-30T10:46:20;98102.41;;;-0.27;75.19
49297;BME280;35163;48.878;18.040;2023-01-30T10:54:27;98092.38;;;-0.05;75.01
49297;BME280;35163;48.878;18.040;2023-01-30T11:00:05;98085.59;;;-0.07;73.83
49297;BME280;35163;48.878;18.040;2023-01-30T11:03:03;98072.00;;;-0.09;73.13
49297;BME280;35163;48.878;18.040;2023-01-30T11:05:41;98065.28;;;0.01;74.09
49297;BME280;35163;48.878;18.040;2023-01-30T11:08:30;98056.84;;;0.06;73.56
49297;BME280;35163;48.878;18.040;2023-01-30T11:10:58;98054.38;;;0.20;73.64
49297;BME280;35163;48.878;18.040;2023-01-30T11:13:30;98045.91;;;0.29;73.01
49297;BME280;35163;48.878;18.040;2023-01-30T11:15:59;98040.88;;;0.46;72.25
49297;BME280;35163;48.878;18.040;2023-01-30T11:18:29;98031.56;;;0.44;72.81
49297;BME280;35163;48.878;18.040;2023-01-30T11:21:28;98025.63;;;0.45;72.20
49297;BME280;35163;48.878;18.040;2023-01-30T11:24:15;98020.56;;;0.51;73.56
49297;BME280;35163;48.878;18.040;2023-01-30T11:26:43;98023.94;;;0.48;73.40
49297;BME280;35163;48.878;18.040;2023-01-30T11:29:32;98018.03;;;0.53;72.98
49297;BME280;35163;48.878;18.040;2023-01-30T11:32:22;98005.31;;;0.54;73.20
49297;BME280;35163;48.878;18.040;2023-01-30T11:37:34;97996.84;;;0.63;73.15
49297;BME280;35163;48.878;18.040;2023-01-30T11:40:18;97989.22;;;0.66;72.54
49297;BME280;35163;48.878;18.040;2023-01-30T11:42:51;97978.16;;;0.70;72.72
49297;BME280;35163;48.878;18.040;2023-01-30T11:45:19;97962.06;;;0.78;72.99
49297;BME280;35163;48.878;18.040;2023-01-30T11:47:56;97968.00;;;0.83;73.04
49297;BME280;35163;48.878;18.040;2023-01-30T11:50:38;97968.00;;;0.83;72.69
49297;BME280;35163;48.878;18.040;2023-01-30T11:53:27;97965.47;;;0.92;73.64
49297;BME280;35163;48.878;18.040;2023-01-30T11:55:58;97974.81;;;0.84;73.78
49297;BME280;35163;48.878;18.040;2023-01-30T11:58:34;97961.22;;;0.82;74.70
49297;BME280;35163;48.878;18.040;2023-01-30T12:01:02;97960.38;;;0.81;74.96
49297;BME280;35163;48.878;18.040;2023-01-30T12:03:30;97951.91;;;0.87;76.30
49297;BME280;35163;48.878;18.040;2023-01-30T12:05:57;97956.97;;;0.89;76.41
49297;BME280;35163;48.878;18.040;2023-01-30T12:08:31;97945.13;;;0.89;77.40
49297;BME280;35163;48.878;18.040;2023-01-30T12:11:27;97945.94;;;0.91;77.87
49297;BME280;35163;48.878;18.040;2023-01-30T12:14:04;97945.94;;;0.91;77.60
49297;BME280;35163;48.878;18.040;2023-01-30T12:19:42;97931.53;;;0.93;79.65
49297;BME280;35163;48.878;18.040;2023-01-30T12:25:09;97911.13;;;1.00;80.30
49297;BME280;35163;48.878;18.040;2023-01-30T12:28:01;97914.53;;;1.02;80.37
49297;BME280;35163;48.878;18.040;2023-01-30T12:30:35;97915.38;;;1.04;80.47
49297;BME280;35163;48.878;18.040;2023-01-30T12:33:11;97906.91;;;0.99;80.63
49297;BME280;35163;48.878;18.040;2023-01-30T12:49:45;97895.03;;;0.98;81.02
49297;BME280;35163;48.878;18.040;2023-01-30T12:52:32;97897.59;;;0.94;81.53
49297;BME280;35163;48.878;18.040;2023-01-30T12:58:36;97895.88;;;0.95;81.58
49297;BME280;35163;48.878;18.040;2023-01-30T13:01:24;97888.22;;;0.96;81.73
49297;BME280;35163;48.878;18.040;2023-01-30T13:09:37;97882.31;;;0.99;81.76
49297;BME280;35163;48.878;18.040;2023-01-30T13:17:24;97872.94;;;1.00;82.14
49297;BME280;35163;48.878;18.040;2023-01-30T13:20:03;97874.66;;;1.04;81.16
49297;BME280;35163;48.878;18.040;2023-01-30T13:27:39;97862.75;;;1.09;81.98
49297;BME280;35163;48.878;18.040;2023-01-30T13:30:14;97855.09;;;1.12;82.23
49297;BME280;35163;48.878;18.040;2023-01-30T13:32:48;97852.56;;;1.12;82.00
49297;BME280;35163;48.878;18.040;2023-01-30T13:35:22;97839.00;;;1.13;82.17
49297;BME280;35163;48.878;18.040;2023-01-30T13:37:50;97833.88;;;1.13;82.41
49297;BME280;35163;48.878;18.040;2023-01-30T13:40:27;97834.69;;;1.17;81.66
49297;BME280;35163;48.878;18.040;2023-01-30T13:45:47;97848.28;;;1.20;82.92
49297;BME280;35163;48.878;18.040;2023-01-30T13:56:39;97818.53;;;1.29;82.66
49297;BME280;35163;48.878;18.040;2023-01-30T13:59:18;97818.56;;;1.26;83.00
49297;BME280;35163;48.878;18.040;2023-01-30T14:04:44;97816.84;;;1.28;83.27
49297;BME280;35163;48.878;18.040;2023-01-30T14:09:44;97815.13;;;1.36;83.13
49297;BME280;35163;48.878;18.040;2023-01-30T14:12:24;97810.88;;;1.38;83.20
49297;BME280;35163;48.878;18.040;2023-01-30T14:15:01;97814.28;;;1.37;82.71
49297;BME280;35163;48.878;18.040;2023-01-30T14:17:29;97815.13;;;1.36;83.51
49297;BME280;35163;48.878;18.040;2023-01-30T14:20:02;97814.28;;;1.34;83.25
49297;BME280;35163;48.878;18.040;2023-01-30T14:22:36;97808.34;;;1.29;83.79
49297;BME280;35163;48.878;18.040;2023-01-30T14:27:54;97805.78;;;1.29;83.53
49297;BME280;35163;48.878;18.040;2023-01-30T14:38:20;97791.34;;;1.34;82.77
49297;BME280;35163;48.878;18.040;2023-01-30T14:48:52;97800.66;;;1.41;83.20
49297;BME280;35163;48.878;18.040;2023-01-30T14:54:24;97795.53;;;1.52;82.58
49297;BME280;35163;48.878;18.040;2023-01-30T14:57:21;97798.16;;;1.35;83.02
49297;BME280;35163;48.878;18.040;2023-01-30T15:00:02;97797.25;;;1.41;83.15
49297;BME280;35163;48.878;18.040;2023-01-30T15:02:49;97806.59;;;1.43;82.84
49297;BME280;35163;48.878;18.040;2023-01-30T15:05:26;97804.91;;;1.45;83.18
49297;BME280;35163;48.878;18.040;2023-01-30T15:08:14;97803.16;;;1.54;83.84
49297;BME280;35163;48.878;18.040;2023-01-30T15:10:53;97804.00;;;1.57;84.16
49297;BME280;35163;48.878;18.040;2023-01-30T15:13:53;97808.25;;;1.54;83.93
49297;BME280;35163;48.878;18.040;2023-01-30T15:16:41;97802.28;;;1.55;84.82
49297;BME280;35163;48.878;18.040;2023-01-30T15:19:30;97809.03;;;1.65;84.29
49297;BME280;35163;48.878;18.040;2023-01-30T15:22:33;97812.44;;;1.66;84.97
49297;BME280;35163;48.878;18.040;2023-01-30T15:30:50;97815.75;;;1.79;83.67
49297;BME280;35163;48.878;18.040;2023-01-30T15:33:24;97810.66;;;1.84;83.72
49297;BME280;35163;48.878;18.040;2023-01-30T15:35:58;97808.13;;;1.82;83.84
49297;BME280;35163;48.878;18.040;2023-01-30T15:38:30;97807.22;;;1.88;83.16
49297;BME280;35163;48.878;18.040;2023-01-30T15:41:02;97807.22;;;1.86;83.75
49297;BME280;35163;48.878;18.040;2023-01-30T15:52:00;97789.28;;;2.02;83.84
49297;BME280;35163;48.878;18.040;2023-01-30T15:54:27;97791.78;;;2.08;83.21
49297;BME280;35163;48.878;18.040;2023-01-30T15:56:55;97802.75;;;2.21;83.02
49297;BME280;35163;48.878;18.040;2023-01-30T15:59:32;97797.63;;;2.26;83.34